Terminal Aerodrome Forecast
Issued by NWS Bismarck, ND

Home | Current Version | Previous Version | Text Only | Print | Product List | Glossary Off
Versions: 1 2 3 4 5 6 7 8 9 10 11 12 13 14 15 16 17 18 19 20 21 22 23 24 25 26

205
FTUS43 KBIS 232218 AAC
TAFBIS
TAF AMD
KBIS 232218Z 2322/2418 04008KT P6SM OVC010
     FM240000 03009KT P6SM OVC012
     FM240300 02008KT P6SM OVC015
     FM240600 02007KT P6SM SCT035
     FM241400 35006KT 2SM BR BKN010
     FM241500 34006KT 4SM BR BKN010=

USA.gov is the U.S. government's official web portal to all federal, state and local government web resources and services.